createdAt,value
2024-01-27T00:01:49.340Z,3.75
2024-01-27T00:04:18.131Z,3.66
2024-01-27T00:06:47.137Z,3.72
2024-01-27T00:09:17.535Z,3.68
2024-01-27T00:11:46.584Z,3.62
2024-01-27T00:14:15.591Z,3.57
2024-01-27T00:16:44.587Z,3.57
2024-01-27T00:19:13.678Z,3.57
2024-01-27T00:21:42.668Z,3.60
2024-01-27T00:24:11.627Z,3.68
2024-01-27T00:26:41.842Z,3.52
2024-01-27T00:29:10.674Z,3.39
2024-01-27T00:31:39.597Z,3.35
2024-01-27T00:34:08.527Z,3.26
2024-01-27T00:36:38.099Z,3.24
2024-01-27T00:39:07.208Z,3.28
2024-01-27T00:41:36.168Z,3.28
2024-01-27T00:44:06.696Z,3.27
2024-01-27T00:46:35.637Z,3.26
2024-01-27T00:49:04.561Z,3.23
2024-01-27T00:51:33.451Z,3.13
2024-01-27T00:54:02.482Z,3.05
2024-01-27T00:56:31.338Z,2.98
2024-01-27T00:59:00.200Z,2.82
2024-01-27T01:01:30.491Z,2.79
2024-01-27T01:03:59.451Z,2.63
2024-01-27T01:06:28.280Z,2.37
2024-01-27T01:08:57.306Z,2.47
2024-01-27T01:11:26.306Z,2.40
2024-01-27T01:13:55.181Z,2.44
2024-01-27T01:16:24.021Z,2.52
2024-01-27T01:18:54.252Z,2.50
2024-01-27T01:21:23.136Z,2.50
2024-01-27T01:23:51.997Z,2.50
2024-01-27T01:26:20.765Z,2.56
2024-01-27T01:28:49.589Z,2.62
2024-01-27T01:31:18.446Z,2.47
2024-01-27T01:33:47.368Z,2.39
2024-01-27T01:36:17.631Z,2.39
2024-01-27T01:38:47.137Z,2.34
2024-01-27T01:41:16.068Z,2.31
2024-01-27T01:43:44.902Z,2.21
2024-01-27T01:46:13.673Z,2.15
2024-01-27T01:48:42.781Z,2.12
2024-01-27T01:51:11.737Z,2.12
2024-01-27T01:53:41.995Z,2.09
2024-01-27T01:56:10.785Z,2.06
2024-01-27T01:58:39.523Z,2.02
2024-01-27T02:01:08.451Z,1.97
2024-01-27T02:03:37.297Z,1.96
2024-01-27T02:06:06.306Z,1.92
2024-01-27T02:08:35.025Z,1.89
2024-01-27T02:11:05.282Z,1.88
2024-01-27T02:13:34.582Z,1.76
2024-01-27T02:16:03.364Z,1.82
2024-01-27T02:18:32.240Z,1.81
2024-01-27T02:21:01.163Z,1.81
2024-01-27T02:23:30.161Z,1.81
2024-01-27T02:26:01.343Z,1.81
2024-01-27T02:28:33.184Z,1.77
2024-01-27T02:31:01.956Z,1.69
2024-01-27T02:33:30.877Z,1.69
2024-01-27T02:35:59.736Z,1.75
2024-01-27T02:38:28.485Z,1.63
2024-01-27T02:40:57.140Z,1.75
2024-01-27T02:43:27.301Z,1.65
2024-01-27T02:45:56.585Z,1.58
2024-01-27T02:48:25.404Z,1.61
2024-01-27T02:50:54.236Z,1.55
2024-01-27T02:53:22.965Z,1.44
2024-01-27T02:55:51.635Z,1.32
2024-01-27T02:58:20.321Z,1.33
2024-01-27T03:00:50.774Z,1.19
2024-01-27T03:03:19.604Z,1.32
2024-01-27T03:05:48.532Z,1.19
2024-01-27T03:08:17.241Z,1.19
2024-01-27T03:10:45.982Z,1.22
2024-01-27T03:13:14.741Z,1.10
2024-01-27T03:15:44.266Z,1.00
2024-01-27T03:18:14.699Z,0.98
2024-01-27T03:20:43.472Z,0.91
2024-01-27T03:23:12.292Z,0.74
2024-01-27T03:25:41.018Z,0.75
2024-01-27T03:28:09.770Z,0.82
2024-01-27T03:30:38.558Z,0.83
2024-01-27T03:33:11.815Z,0.77
2024-01-27T03:35:42.221Z,0.80
2024-01-27T03:38:10.937Z,0.89
2024-01-27T03:40:39.668Z,0.84
2024-01-27T03:43:08.354Z,0.83
2024-01-27T03:45:37.198Z,0.86
2024-01-27T03:48:07.073Z,0.95
2024-01-27T03:50:35.883Z,0.96
2024-01-27T03:53:06.106Z,1.08
2024-01-27T03:55:35.503Z,1.01
2024-01-27T03:58:04.320Z,0.92
2024-01-27T04:00:34.660Z,1.02
2024-01-27T04:03:03.831Z,0.84
2024-01-27T04:05:32.997Z,1.03
2024-01-27T04:08:01.656Z,0.94
2024-01-27T04:10:31.768Z,0.94
2024-01-27T04:13:00.547Z,0.92
2024-01-27T04:15:29.722Z,0.93
2024-01-27T04:17:58.848Z,0.97
2024-01-27T04:20:27.637Z,0.96
2024-01-27T04:22:56.347Z,0.78
2024-01-27T04:25:25.084Z,0.81
2024-01-27T04:27:55.204Z,0.91
2024-01-27T04:30:24.026Z,0.85
2024-01-27T04:32:53.261Z,0.82
2024-01-27T04:35:22.291Z,0.84
2024-01-27T04:37:52.318Z,0.86
2024-01-27T04:40:21.282Z,0.84
2024-01-27T04:42:50.032Z,0.79
2024-01-27T04:45:20.257Z,0.74
2024-01-27T04:47:49.031Z,0.67
2024-01-27T04:50:17.983Z,0.62
2024-01-27T04:52:47.447Z,0.67
2024-01-27T04:55:16.323Z,0.38
2024-01-27T04:57:45.016Z,0.26
2024-01-27T05:00:15.347Z,0.30
2024-01-27T05:02:45.488Z,0.36
2024-01-27T05:05:14.583Z,0.32
2024-01-27T05:07:43.270Z,0.35
2024-01-27T05:10:12.881Z,0.41
2024-01-27T05:12:41.682Z,0.41
2024-01-27T05:15:12.569Z,0.42
2024-01-27T05:17:41.367Z,0.46
2024-01-27T05:20:12.378Z,0.43
2024-01-27T05:22:41.121Z,0.42
2024-01-27T05:25:10.933Z,0.44
2024-01-27T05:27:39.779Z,0.35
2024-01-27T05:30:09.987Z,0.40
2024-01-27T05:32:39.194Z,0.44
2024-01-27T05:35:09.121Z,0.33
2024-01-27T05:37:40.144Z,0.27
2024-01-27T05:40:11.700Z,0.29
2024-01-27T05:42:41.628Z,0.20
2024-01-27T05:45:11.529Z,0.16
2024-01-27T05:47:40.454Z,0.12
2024-01-27T05:50:10.108Z,0.27
2024-01-27T05:52:40.155Z,0.14
2024-01-27T05:55:09.524Z,0.11
2024-01-27T05:57:38.246Z,0.13
2024-01-27T06:00:10.638Z,0.14
2024-01-27T06:02:39.530Z,0.00
2024-01-27T06:05:10.079Z,0.12
2024-01-27T06:07:41.065Z,-0.10
2024-01-27T06:10:10.566Z,-0.12
2024-01-27T06:12:40.207Z,-0.07
2024-01-27T06:15:11.364Z,0.01
2024-01-27T06:17:40.809Z,0.03
2024-01-27T06:20:10.890Z,0.11
2024-01-27T06:22:41.197Z,0.10
2024-01-27T06:25:10.378Z,-0.15
2024-01-27T06:27:39.256Z,-0.03
2024-01-27T06:30:09.445Z,0.10
2024-01-27T06:32:38.377Z,0.14
2024-01-27T06:35:07.658Z,0.14
2024-01-27T06:37:36.409Z,-0.11
2024-01-27T06:40:08.475Z,-0.11
2024-01-27T06:42:37.527Z,-0.03
2024-01-27T06:45:07.247Z,-0.05
2024-01-27T06:47:36.158Z,-0.13
2024-01-27T06:50:05.373Z,-0.10
2024-01-27T06:52:34.144Z,-0.05
2024-01-27T06:55:02.964Z,-0.08
2024-01-27T06:57:33.099Z,-0.11
2024-01-27T07:00:01.896Z,-0.41
2024-01-27T07:02:30.937Z,-0.42
2024-01-27T07:05:00.404Z,-0.45
2024-01-27T07:07:30.363Z,-0.44
2024-01-27T07:09:59.777Z,-0.62
2024-01-27T07:12:28.599Z,-0.66
2024-01-27T07:15:00.985Z,-0.57
2024-01-27T07:17:30.183Z,-0.58
2024-01-27T07:19:59.004Z,-0.65
2024-01-27T07:22:27.798Z,-0.76
2024-01-27T07:24:57.808Z,-0.74
2024-01-27T07:27:26.565Z,-0.81
2024-01-27T07:29:55.417Z,-0.87
2024-01-27T07:32:27.267Z,-0.75
2024-01-27T07:34:56.156Z,-0.82
2024-01-27T07:37:24.966Z,-0.79
2024-01-27T07:39:53.707Z,-0.66
2024-01-27T07:42:22.445Z,-0.63
2024-01-27T07:44:51.601Z,-0.63
2024-01-27T07:47:20.357Z,-0.66
2024-01-27T07:49:51.108Z,-0.41
2024-01-27T07:52:19.868Z,-0.32
2024-01-27T07:54:48.626Z,-0.28
2024-01-27T07:57:17.497Z,-0.29
2024-01-27T07:59:46.515Z,-0.34
2024-01-27T08:02:15.250Z,-0.36
2024-01-27T08:04:44.066Z,-0.43
2024-01-27T08:07:16.076Z,-0.46
2024-01-27T08:09:45.004Z,-0.41
2024-01-27T08:12:13.900Z,-0.26
2024-01-27T08:14:42.721Z,-0.42
2024-01-27T08:17:11.481Z,-0.41
2024-01-27T08:19:40.400Z,-0.35
2024-01-27T08:22:10.415Z,-0.30
2024-01-27T08:24:40.669Z,-0.25
2024-01-27T08:27:09.481Z,-0.27
2024-01-27T08:29:38.209Z,-0.35
2024-01-27T08:32:07.844Z,-0.18
2024-01-27T08:34:36.708Z,-0.23
2024-01-27T08:37:16.651Z,-0.14
2024-01-27T08:39:46.828Z,-0.08
2024-01-27T08:42:16.241Z,-0.26
2024-01-27T08:44:45.051Z,-0.21
2024-01-27T08:47:13.787Z,-0.16
2024-01-27T08:49:42.807Z,-0.01
2024-01-27T08:52:12.128Z,0.12
2024-01-27T08:54:42.266Z,0.24
2024-01-27T08:57:12.453Z,0.29
2024-01-27T08:59:41.226Z,0.37
2024-01-27T09:02:09.993Z,0.43
2024-01-27T09:04:39.079Z,0.55
2024-01-27T09:07:07.901Z,0.34
2024-01-27T09:09:36.768Z,0.64
2024-01-27T09:12:05.879Z,0.56
2024-01-27T09:14:36.105Z,0.50
2024-01-27T09:17:05.319Z,0.61
2024-01-27T09:19:34.211Z,0.61
2024-01-27T09:22:03.092Z,0.68
2024-01-27T09:24:31.918Z,0.81
2024-01-27T09:27:00.882Z,0.96
2024-01-27T09:29:29.980Z,1.08
2024-01-27T09:32:00.450Z,1.19
2024-01-27T09:34:29.638Z,1.10
2024-01-27T09:36:58.753Z,1.29
2024-01-27T09:39:27.537Z,1.36
2024-01-27T09:41:56.807Z,1.48
2024-01-27T09:44:26.756Z,1.59
2024-01-27T09:46:56.035Z,1.64
2024-01-27T09:49:27.357Z,1.80
2024-01-27T09:51:57.932Z,1.71
2024-01-27T09:54:26.835Z,1.72
2024-01-27T09:56:56.744Z,1.76
2024-01-27T09:59:26.235Z,1.85
2024-01-27T10:01:55.075Z,1.94
2024-01-27T10:04:26.404Z,1.99
2024-01-27T10:06:55.252Z,2.15
2024-01-27T10:09:24.238Z,2.23
2024-01-27T10:11:53.737Z,2.28
2024-01-27T10:14:22.577Z,2.40
2024-01-27T10:16:51.278Z,2.41
2024-01-27T10:19:22.296Z,2.48
2024-01-27T10:22:02.321Z,2.56
2024-01-27T10:24:31.236Z,2.56
2024-01-27T10:27:02.215Z,2.70
2024-01-27T10:29:31.116Z,2.81
2024-01-27T10:32:09.480Z,2.99
2024-01-27T10:34:38.351Z,3.01
2024-01-27T10:37:08.527Z,3.06
2024-01-27T10:39:37.362Z,3.04
2024-01-27T10:42:07.286Z,3.03
2024-01-27T10:44:36.327Z,3.04
2024-01-27T10:47:06.998Z,3.05
2024-01-27T10:49:36.747Z,3.18
2024-01-27T10:52:12.287Z,3.28
2024-01-27T10:54:42.747Z,3.41
2024-01-27T10:57:12.200Z,3.41
2024-01-27T10:59:42.189Z,3.43
2024-01-27T11:02:15.354Z,3.56
2024-01-27T11:04:44.643Z,3.52
2024-01-27T11:07:14.932Z,3.72
2024-01-27T11:09:44.392Z,3.84
2024-01-27T11:12:13.836Z,3.97
2024-01-27T11:14:43.479Z,4.07
2024-01-27T11:17:12.351Z,4.10
2024-01-27T11:19:42.298Z,4.17
2024-01-27T11:22:28.041Z,4.31
2024-01-27T11:25:09.915Z,4.30
2024-01-27T11:27:38.855Z,4.63
2024-01-27T11:30:09.360Z,4.84
2024-01-27T11:32:38.716Z,4.98
2024-01-27T11:35:07.906Z,5.17
2024-01-27T11:37:40.044Z,5.14
2024-01-27T11:40:11.369Z,5.12
2024-01-27T11:42:40.558Z,5.27
2024-01-27T11:45:10.301Z,5.39
2024-01-27T11:47:39.309Z,5.47
2024-01-27T11:50:09.683Z,5.58
2024-01-27T11:52:39.972Z,5.70
2024-01-27T11:55:09.630Z,5.79
2024-01-27T11:57:38.737Z,5.84
2024-01-27T12:00:10.489Z,6.02
2024-01-27T12:02:40.004Z,6.15
2024-01-27T12:05:10.023Z,6.27
2024-01-27T12:07:41.244Z,6.39
2024-01-27T12:10:11.125Z,6.34
2024-01-27T12:12:40.387Z,6.46
2024-01-27T12:15:10.006Z,6.54
2024-01-27T12:17:39.358Z,6.56
2024-01-27T12:20:17.932Z,6.69
2024-01-27T12:22:48.596Z,6.80
2024-01-27T12:25:18.213Z,6.82
2024-01-27T12:27:47.401Z,6.86
2024-01-27T12:30:16.746Z,6.93
2024-01-27T12:32:45.709Z,6.99
2024-01-27T12:35:15.216Z,7.11
2024-01-27T12:37:45.690Z,7.23
2024-01-27T12:40:24.281Z,7.48
2024-01-27T12:42:53.707Z,7.41
2024-01-27T12:45:22.577Z,7.47
2024-01-27T12:47:52.016Z,7.57
2024-01-27T12:50:21.260Z,7.61
2024-01-27T12:52:50.270Z,7.73
2024-01-27T12:55:19.323Z,7.73
2024-01-27T12:57:50.112Z,7.78
2024-01-27T13:00:20.456Z,7.60
2024-01-27T13:02:49.291Z,7.63
2024-01-27T13:05:18.390Z,7.59
2024-01-27T13:07:47.225Z,7.63
2024-01-27T13:10:16.190Z,7.73
2024-01-27T13:12:46.288Z,7.84
2024-01-27T13:15:16.630Z,7.90
2024-01-27T13:17:45.600Z,7.89
2024-01-27T13:20:19.722Z,8.02
2024-01-27T13:22:50.043Z,7.81
2024-01-27T13:25:18.882Z,7.90
2024-01-27T13:27:48.073Z,7.91
2024-01-27T13:30:18.841Z,8.05
2024-01-27T13:32:48.160Z,8.06
2024-01-27T13:35:17.475Z,8.08
2024-01-27T13:37:47.324Z,8.11
2024-01-27T13:40:16.296Z,8.02
2024-01-27T13:42:45.204Z,8.09
2024-01-27T13:45:14.177Z,8.11
2024-01-27T13:47:44.726Z,8.10
2024-01-27T13:50:14.084Z,8.16
2024-01-27T13:52:44.752Z,8.07
2024-01-27T13:55:13.807Z,8.13
2024-01-27T13:57:43.194Z,8.13
2024-01-27T14:00:13.739Z,8.08
2024-01-27T14:02:44.434Z,8.08
2024-01-27T14:05:13.352Z,8.11
2024-01-27T14:07:42.291Z,8.09
2024-01-27T14:10:11.774Z,8.08
2024-01-27T14:12:40.816Z,8.06
2024-01-27T14:15:11.036Z,8.10
2024-01-27T14:17:40.049Z,8.08
2024-01-27T14:20:12.472Z,8.02
2024-01-27T14:22:41.589Z,7.92
2024-01-27T14:25:10.962Z,7.96
2024-01-27T14:27:39.995Z,7.97
2024-01-27T14:30:11.907Z,7.91
2024-01-27T14:32:40.987Z,7.87
2024-01-27T14:35:11.395Z,7.78
2024-01-27T14:37:40.638Z,7.74
2024-01-27T14:40:11.509Z,7.74
2024-01-27T14:42:42.007Z,7.70
2024-01-27T14:45:11.918Z,7.69
2024-01-27T14:47:41.130Z,7.65
2024-01-27T14:50:12.057Z,7.65
2024-01-27T14:52:41.190Z,7.59
2024-01-27T14:55:12.456Z,7.50
2024-01-27T14:57:42.000Z,7.30
2024-01-27T15:00:12.972Z,7.25
2024-01-27T15:02:42.080Z,7.26
2024-01-27T15:05:12.635Z,7.19
2024-01-27T15:07:41.782Z,7.22
2024-01-27T15:10:13.009Z,7.11
2024-01-27T15:12:42.131Z,7.05
2024-01-27T15:15:12.038Z,6.97
2024-01-27T15:17:41.139Z,6.90
2024-01-27T15:20:13.742Z,6.79
2024-01-27T15:22:45.037Z,6.69
2024-01-27T15:25:14.916Z,6.63
2024-01-27T15:27:44.696Z,6.63
2024-01-27T15:30:15.862Z,6.57
2024-01-27T15:32:45.207Z,6.56
2024-01-27T15:35:16.195Z,6.48
2024-01-27T15:37:45.225Z,6.48
2024-01-27T15:40:14.592Z,6.55
2024-01-27T15:42:43.916Z,6.48
2024-01-27T15:45:12.879Z,6.44
2024-01-27T15:47:43.956Z,6.39
2024-01-27T15:50:15.126Z,6.33
2024-01-27T15:52:45.725Z,6.26
2024-01-27T15:55:15.917Z,6.21
2024-01-27T15:57:44.894Z,6.17
2024-01-27T16:00:14.922Z,6.04
2024-01-27T16:02:43.863Z,5.97
2024-01-27T16:05:12.752Z,5.82
2024-01-27T16:07:41.776Z,5.83
2024-01-27T16:10:12.249Z,5.62
2024-01-27T16:12:41.116Z,5.62
2024-01-27T16:15:10.830Z,5.42
2024-01-27T16:17:39.783Z,5.35
2024-01-27T16:20:09.864Z,5.25
2024-01-27T16:22:39.046Z,5.15
2024-01-27T16:25:08.688Z,5.05
2024-01-27T16:27:39.004Z,5.05
2024-01-27T16:30:09.149Z,5.03
2024-01-27T16:32:38.066Z,4.96
2024-01-27T16:35:08.263Z,4.93
2024-01-27T16:37:37.372Z,4.89
2024-01-27T16:40:07.456Z,4.87
2024-01-27T16:42:37.823Z,4.79
2024-01-27T16:45:10.655Z,4.75
2024-01-27T16:47:39.645Z,4.69
2024-01-27T16:50:09.106Z,4.63
2024-01-27T16:52:38.362Z,4.50
2024-01-27T16:55:07.953Z,4.46
2024-01-27T16:57:36.944Z,4.38
2024-01-27T17:00:30.010Z,4.32
2024-01-27T17:02:59.067Z,4.25
2024-01-27T17:05:28.140Z,4.21
2024-01-27T17:07:57.108Z,4.19
2024-01-27T17:10:26.345Z,4.17
2024-01-27T17:12:55.339Z,4.11
2024-01-27T17:15:25.782Z,4.16
2024-01-27T17:17:54.715Z,4.09
2024-01-27T17:20:24.605Z,4.09
2024-01-27T17:22:53.436Z,4.00
2024-01-27T17:25:22.636Z,4.04
2024-01-27T17:27:51.680Z,4.05
2024-01-27T17:30:20.556Z,4.04
2024-01-27T17:32:50.810Z,4.13
2024-01-27T17:35:19.771Z,4.04
2024-01-27T17:37:48.573Z,3.97
2024-01-27T17:40:17.820Z,3.83
2024-01-27T17:42:47.550Z,3.81
2024-01-27T17:45:16.799Z,3.71
2024-01-27T17:47:50.421Z,3.70
2024-01-27T17:50:21.288Z,3.61
2024-01-27T17:52:50.682Z,3.68
2024-01-27T17:55:20.723Z,3.74
2024-01-27T17:57:49.647Z,3.71
2024-01-27T18:00:19.658Z,3.66
2024-01-27T18:02:48.600Z,3.51
2024-01-27T18:05:17.432Z,3.35
2024-01-27T18:07:47.585Z,3.34
2024-01-27T18:10:16.518Z,3.25
2024-01-27T18:12:47.602Z,3.19
2024-01-27T18:15:16.783Z,3.27
2024-01-27T18:17:45.517Z,3.33
2024-01-27T18:20:14.636Z,3.29
2024-01-27T18:22:43.597Z,3.32
2024-01-27T18:25:14.113Z,3.47
2024-01-27T18:27:44.170Z,3.30
2024-01-27T18:30:16.129Z,3.25
2024-01-27T18:32:45.109Z,3.30
2024-01-27T18:35:14.192Z,3.27
2024-01-27T18:37:43.186Z,3.12
2024-01-27T18:40:13.620Z,3.19
2024-01-27T18:45:40.212Z,3.14
2024-01-27T18:48:10.057Z,3.10
2024-01-27T18:50:40.469Z,3.02
2024-01-27T18:53:11.198Z,2.97
2024-01-27T18:55:42.122Z,2.90
2024-01-27T18:58:11.320Z,2.94
2024-01-27T19:00:40.324Z,2.81
2024-01-27T19:03:10.546Z,2.90
2024-01-27T19:05:39.545Z,2.93
2024-01-27T19:08:08.358Z,2.89
2024-01-27T19:10:37.169Z,2.87
2024-01-27T19:13:07.426Z,2.86
2024-01-27T19:15:36.325Z,2.80
2024-01-27T19:18:05.301Z,2.84
2024-01-27T19:20:34.250Z,2.85
2024-01-27T19:23:04.604Z,2.83
2024-01-27T19:25:34.265Z,2.73
2024-01-27T19:28:03.213Z,2.72
2024-01-27T19:30:33.422Z,2.70
2024-01-27T19:33:02.644Z,2.59
2024-01-27T19:35:31.753Z,2.61
2024-01-27T19:38:01.344Z,2.55
2024-01-27T19:40:32.391Z,2.57
2024-01-27T19:43:01.349Z,2.54
2024-01-27T19:45:30.316Z,2.51
2024-01-27T19:48:00.595Z,2.53
2024-01-27T19:50:29.637Z,2.56
2024-01-27T19:52:58.587Z,2.59
2024-01-27T19:55:27.411Z,2.65
2024-01-27T19:57:56.254Z,2.62
2024-01-27T20:00:30.675Z,2.55
2024-01-27T20:03:01.456Z,2.50
2024-01-27T20:05:30.338Z,2.48
2024-01-27T20:07:59.121Z,2.51
2024-01-27T20:10:27.942Z,2.49
2024-01-27T20:12:59.510Z,2.45
2024-01-27T20:15:28.356Z,2.44
2024-01-27T20:17:57.247Z,2.31
2024-01-27T20:20:28.000Z,2.32
2024-01-27T20:22:56.899Z,2.23
2024-01-27T20:25:25.769Z,2.22
2024-01-27T20:27:54.594Z,2.30
2024-01-27T20:30:23.486Z,2.31
2024-01-27T20:32:57.320Z,2.23
2024-01-27T20:35:28.279Z,2.27
2024-01-27T20:37:57.418Z,2.21
2024-01-27T20:40:27.765Z,2.19
2024-01-27T20:42:56.470Z,2.21
2024-01-27T20:45:26.283Z,2.07
2024-01-27T20:47:55.217Z,2.06
2024-01-27T20:50:26.414Z,2.07
2024-01-27T20:52:57.382Z,2.13
2024-01-27T20:55:27.824Z,1.97
2024-01-27T20:57:57.391Z,1.93
2024-01-27T21:00:26.825Z,1.96
2024-01-27T21:02:55.738Z,1.89
2024-01-27T21:05:24.599Z,1.83
2024-01-27T21:07:53.406Z,1.69
2024-01-27T21:10:23.750Z,1.82
2024-01-27T21:12:52.650Z,1.84
2024-01-27T21:15:21.575Z,1.92
2024-01-27T21:17:50.809Z,1.79
2024-01-27T21:20:19.574Z,1.77
2024-01-27T21:22:48.395Z,1.83
2024-01-27T21:25:17.380Z,1.87
2024-01-27T21:27:47.666Z,1.83
2024-01-27T21:30:16.623Z,1.83
2024-01-27T21:32:45.856Z,1.77
2024-01-27T21:35:14.878Z,1.74
2024-01-27T21:37:43.651Z,1.65
2024-01-27T21:41:08.757Z,1.48
2024-01-27T21:43:38.938Z,1.61
2024-01-27T21:46:09.078Z,1.58
2024-01-27T21:48:38.772Z,1.52
2024-01-27T21:51:10.906Z,1.49
2024-01-27T21:53:41.651Z,1.50
2024-01-27T21:56:12.140Z,1.62
2024-01-27T21:58:42.734Z,1.45
2024-01-27T22:01:12.861Z,1.48
2024-01-27T22:03:42.278Z,1.52
2024-01-27T22:06:11.323Z,1.35
2024-01-27T22:08:40.342Z,1.19
2024-01-27T22:11:09.223Z,1.11
2024-01-27T22:13:39.186Z,1.14
2024-01-27T22:16:09.631Z,1.16
2024-01-27T22:18:38.560Z,1.12
2024-01-27T22:21:07.699Z,1.03
2024-01-27T22:23:36.592Z,1.19
2024-01-27T22:26:05.713Z,1.12
2024-01-27T22:28:34.608Z,1.07
2024-01-27T22:31:04.376Z,1.01
2024-01-27T22:33:35.131Z,0.95
2024-01-27T22:36:04.444Z,0.98
2024-01-27T22:38:33.251Z,0.98
2024-01-27T22:41:02.262Z,1.03
2024-01-27T22:43:31.118Z,1.04
2024-01-27T22:45:59.948Z,0.93
2024-01-27T22:48:30.374Z,0.85
2024-01-27T22:51:00.631Z,0.82
2024-01-27T22:53:29.394Z,0.84
2024-01-27T22:55:58.282Z,0.89
2024-01-27T22:58:32.455Z,0.99
2024-01-27T23:01:01.686Z,0.97
2024-01-27T23:03:30.906Z,0.97
2024-01-27T23:06:01.243Z,0.92
2024-01-27T23:08:30.055Z,0.96
2024-01-27T23:10:59.293Z,1.01
2024-01-27T23:13:28.087Z,0.92
2024-01-27T23:15:56.972Z,0.79
2024-01-27T23:18:25.898Z,0.76
2024-01-27T23:20:54.863Z,0.64
2024-01-27T23:23:25.968Z,0.62
2024-01-27T23:25:54.767Z,0.55
2024-01-27T23:28:23.603Z,0.49
2024-01-27T23:30:52.536Z,0.55
2024-01-27T23:33:21.907Z,0.65
2024-01-27T23:35:50.875Z,0.54
2024-01-27T23:38:21.397Z,0.60
2024-01-27T23:40:51.608Z,0.66
2024-01-27T23:43:20.468Z,0.65
2024-01-27T23:45:50.642Z,0.53
2024-01-27T23:48:20.004Z,0.48
2024-01-27T23:50:48.873Z,0.46
2024-01-27T23:53:21.462Z,0.42
2024-01-27T23:55:51.632Z,0.42
2024-01-27T23:58:20.608Z,0.44
